createdAt,value
2022-09-15T03:38:42.644Z,66.90
2022-09-15T03:44:04.195Z,66.50
2022-09-15T03:49:25.753Z,66.52
2022-09-15T03:54:48.707Z,66.05
2022-09-15T04:00:10.404Z,65.95
2022-09-15T04:05:31.159Z,66.08
2022-09-15T04:10:52.176Z,66.45
2022-09-15T04:16:14.217Z,66.31
2022-09-15T04:21:34.904Z,66.06
2022-09-15T04:26:55.653Z,66.96
2022-09-15T04:32:16.540Z,66.26
2022-09-15T04:37:39.286Z,66.35
2022-09-15T04:43:00.194Z,66.60
2022-09-15T04:48:22.326Z,66.10
2022-09-15T04:53:43.761Z,65.89
2022-09-15T04:59:04.734Z,66.00
2022-09-15T05:04:25.736Z,65.87
2022-09-15T05:09:46.877Z,66.25
2022-09-15T05:15:08.242Z,65.79
2022-09-15T05:20:29.789Z,66.15
2022-09-15T05:25:56.014Z,65.79
2022-09-15T05:31:19.962Z,65.63
2022-09-15T05:36:40.731Z,65.54
2022-09-15T05:42:01.667Z,65.62
2022-09-15T05:47:22.796Z,65.78
2022-09-15T05:52:43.759Z,65.67
2022-09-15T05:58:04.502Z,65.39
2022-09-15T06:03:30.068Z,65.32
2022-09-15T06:08:58.081Z,64.67
2022-09-15T06:14:19.970Z,64.91
2022-09-15T06:19:40.683Z,64.65
2022-09-15T06:25:01.585Z,64.35
2022-09-15T06:30:22.236Z,64.36
2022-09-15T06:35:43.278Z,63.79
2022-09-15T06:41:04.714Z,63.43
2022-09-15T06:46:26.661Z,63.47
2022-09-15T06:51:48.250Z,63.12
2022-09-15T06:57:09.152Z,63.05
2022-09-15T07:02:29.875Z,63.51
2022-09-15T07:07:50.707Z,63.21
2022-09-15T07:13:11.738Z,63.59
2022-09-15T07:18:32.993Z,63.12
2022-09-15T07:23:57.097Z,63.55
2022-09-15T07:29:18.022Z,63.36
2022-09-15T07:34:38.657Z,63.93
2022-09-15T07:40:00.058Z,62.83
2022-09-15T07:45:20.655Z,62.11
2022-09-15T07:50:41.290Z,61.66
2022-09-15T07:56:01.824Z,61.60
2022-09-15T08:01:22.820Z,61.07
2022-09-15T08:06:44.596Z,61.22
2022-09-15T08:12:06.801Z,61.01
2022-09-15T08:17:28.213Z,60.82
2022-09-15T08:22:48.603Z,61.21
2022-09-15T08:28:09.868Z,61.26
2022-09-15T08:33:30.770Z,60.63
2022-09-15T08:38:51.580Z,60.54
2022-09-15T08:44:21.352Z,60.25
2022-09-15T08:49:52.533Z,59.85
2022-09-15T08:55:21.045Z,58.81
2022-09-15T09:00:43.935Z,56.71
2022-09-15T09:06:39.019Z,51.86
2022-09-15T09:12:18.328Z,49.26
2022-09-15T09:17:57.433Z,48.70
2022-09-15T09:23:24.185Z,41.82
2022-09-15T09:28:58.855Z,34.40
2022-09-15T09:34:31.117Z,31.50
2022-09-15T09:39:52.183Z,29.28
2022-09-15T09:45:15.700Z,31.58
2022-09-15T09:50:42.829Z,33.78
2022-09-15T09:56:39.934Z,35.76
2022-09-15T10:02:18.868Z,38.04
2022-09-15T10:07:46.300Z,34.27
2022-09-15T10:13:06.801Z,35.28
2022-09-15T10:18:30.818Z,38.44
2022-09-15T10:23:51.719Z,38.45
2022-09-15T10:29:18.061Z,36.67
2022-09-15T10:34:39.160Z,37.52
2022-09-15T10:47:09.314Z,41.50
2022-09-15T10:53:07.671Z,42.88
2022-09-15T10:58:52.709Z,44.99
2022-09-15T11:04:32.533Z,43.80
2022-09-15T11:10:15.523Z,43.49
2022-09-15T11:15:49.851Z,44.31
2022-09-15T11:21:34.326Z,41.71
2022-09-15T11:26:57.611Z,44.58
2022-09-15T11:32:25.985Z,46.52
2022-09-15T11:37:50.709Z,39.23
2022-09-15T11:43:20.481Z,37.46
2022-09-15T11:49:02.767Z,35.84
2022-09-15T11:54:37.607Z,39.16
2022-09-15T12:00:14.610Z,37.49
2022-09-15T12:05:55.926Z,31.14
2022-09-15T12:11:22.579Z,36.45
2022-09-15T12:16:44.630Z,39.02
2022-09-15T12:22:14.760Z,38.39
2022-09-15T12:27:35.514Z,38.33
2022-09-15T12:32:56.632Z,40.46
2022-09-15T12:38:17.214Z,40.75
2022-09-15T12:43:38.002Z,40.15
2022-09-15T12:49:03.068Z,39.69
2022-09-15T12:54:29.643Z,39.30
2022-09-15T13:00:34.115Z,38.96
2022-09-15T13:06:14.978Z,38.61
2022-09-15T13:17:17.237Z,39.84
2022-09-15T13:22:43.879Z,40.29
2022-09-15T13:28:05.268Z,40.20
2022-09-15T13:39:49.888Z,38.41
2022-09-15T13:45:14.013Z,40.46
2022-09-15T13:50:41.995Z,41.83
2022-09-15T13:56:09.578Z,41.66
2022-09-15T14:01:34.823Z,41.51
2022-09-15T14:07:00.916Z,42.42
2022-09-15T14:12:22.683Z,42.83
2022-09-15T14:17:46.744Z,42.73
2022-09-15T14:23:16.099Z,41.18
2022-09-15T14:28:37.462Z,43.96
2022-09-15T14:33:59.225Z,43.83
2022-09-15T14:39:22.234Z,43.61
2022-09-15T14:50:26.350Z,45.83
2022-09-15T14:55:55.737Z,45.77
2022-09-15T15:01:25.976Z,46.81
2022-09-15T15:07:13.473Z,48.27
2022-09-15T15:12:50.843Z,49.96
2022-09-15T15:18:32.254Z,51.33
2022-09-15T15:23:53.830Z,51.63
2022-09-15T15:29:44.098Z,52.42
2022-09-15T15:35:05.238Z,51.91
2022-09-15T15:40:27.056Z,52.14
2022-09-15T15:46:03.365Z,52.29
2022-09-15T15:51:24.261Z,52.73
2022-09-15T15:56:45.219Z,52.81
2022-09-15T16:02:10.795Z,52.83
2022-09-15T16:07:33.497Z,53.11
2022-09-15T16:12:55.260Z,52.78
2022-09-15T16:18:16.611Z,53.06
2022-09-15T16:23:37.762Z,53.49
2022-09-15T16:28:58.609Z,53.48
2022-09-15T16:34:19.628Z,53.62
2022-09-15T16:39:40.188Z,53.59
2022-09-15T16:45:02.959Z,53.84
2022-09-15T16:50:23.667Z,54.12
2022-09-15T16:55:52.171Z,54.18
2022-09-15T17:01:18.975Z,53.78
2022-09-15T17:06:40.112Z,53.92
2022-09-15T17:12:00.967Z,54.36
2022-09-15T17:17:25.505Z,54.18
2022-09-15T17:22:48.125Z,54.16
2022-09-15T17:28:08.800Z,54.41
2022-09-15T17:33:31.627Z,54.16
2022-09-15T17:38:52.947Z,54.14
2022-09-15T17:44:14.196Z,54.47
2022-09-15T17:49:35.099Z,54.43
2022-09-15T17:54:56.362Z,54.70
2022-09-15T18:00:19.952Z,54.77
2022-09-15T18:05:40.862Z,54.89
2022-09-15T18:11:02.512Z,55.05
2022-09-15T18:16:23.534Z,54.86
2022-09-15T18:21:44.785Z,55.52
2022-09-15T18:27:06.292Z,54.71
2022-09-15T18:32:27.342Z,55.39
2022-09-15T18:37:53.667Z,55.37
2022-09-15T18:43:15.478Z,55.39
2022-09-15T18:48:36.110Z,55.37
2022-09-15T18:53:57.482Z,56.10
2022-09-15T18:59:18.350Z,55.48
2022-09-15T19:04:40.722Z,56.03
2022-09-15T19:10:01.675Z,55.63
2022-09-15T19:15:25.294Z,56.21
2022-09-15T19:20:45.937Z,56.08
2022-09-15T19:26:11.920Z,56.03
2022-09-15T19:31:32.824Z,55.85
2022-09-15T19:36:53.703Z,56.18
2022-09-15T19:47:41.329Z,56.31
2022-09-15T19:53:02.374Z,55.95
2022-09-15T19:58:23.050Z,56.22
2022-09-15T20:03:44.314Z,55.82
2022-09-15T20:09:06.352Z,56.17
2022-09-15T20:14:27.451Z,56.38
2022-09-15T20:19:48.344Z,56.71
2022-09-15T20:25:09.143Z,56.83
2022-09-15T20:30:29.850Z,57.03
2022-09-15T20:35:50.605Z,56.89
2022-09-15T20:41:12.776Z,57.50
2022-09-15T20:46:33.621Z,57.15
2022-09-15T20:51:54.451Z,57.31
2022-09-15T20:57:15.155Z,58.15
2022-09-15T21:02:35.731Z,57.83
2022-09-15T21:07:56.550Z,57.71
2022-09-15T21:13:19.129Z,58.04
2022-09-15T21:18:41.984Z,57.91
2022-09-15T21:24:06.205Z,57.98
2022-09-15T21:29:28.483Z,58.05
2022-09-15T21:34:49.400Z,58.19
2022-09-15T21:40:10.290Z,58.29
